Time;durP1;ratioP1;P1;durP2;ratioP2;P2;SDS_P1;SDS_P2;PMS_P1;PMS_P2;Temp;Humidity;BMP_temperature;BMP_pressure;BME280_temperature;BME280_humidity;BME280_pressure;Samples;Min_cycle;Max_cycle;Signal;HPM_P1;HPM_P2
2021/12/23 00:01:15;;;;;;;13.77;8.45;;;-1.20;99.90;;;;;;5133886;27;20099;-59
2021/12/23 00:03:41;;;;;;;15.13;8.48;;;-1.30;99.90;;;;;;5116004;27;20043;-59
2021/12/23 00:06:07;;;;;;;14.43;8.23;;;-1.30;99.90;;;;;;5143630;27;20341;-59
2021/12/23 00:08:33;;;;;;;12.52;8.10;;;-1.30;99.90;;;;;;5146342;27;20134;-59
2021/12/23 00:10:59;;;;;;;14.00;8.65;;;-1.30;99.90;;;;;;5134717;27;20118;-58
2021/12/23 00:13:25;;;;;;;15.32;8.70;;;-1.20;99.90;;;;;;5115927;27;20480;-62
2021/12/23 00:23:46;;;;;;;14.85;8.77;;;-1.20;99.90;;;;;;5134423;27;20095;-59
2021/12/23 00:26:12;;;;;;;18.90;9.05;;;-1.20;99.90;;;;;;5134097;27;20433;-58
2021/12/23 00:28:38;;;;;;;15.15;8.82;;;-1.20;99.90;;;;;;5115563;27;20467;-59
2021/12/23 00:31:05;;;;;;;14.25;8.65;;;-1.20;99.90;;;;;;5135267;27;20043;-58
2021/12/23 00:33:31;;;;;;;18.17;9.57;;;-1.20;99.90;;;;;;5133941;27;20070;-59
2021/12/23 00:35:58;;;;;;;16.65;9.80;;;-1.20;99.90;;;;;;5116205;27;20057;-59
2021/12/23 00:38:29;;;;;;;13.32;7.78;;;-1.20;99.90;;;;;;5133256;27;20059;-59
2021/12/23 00:40:57;;;;;;;12.88;7.78;;;-1.20;99.90;;;;;;5144598;27;20129;-59
2021/12/23 00:43:23;;;;;;;21.48;9.75;;;-1.10;99.90;;;;;;5118760;27;20081;-58
2021/12/23 00:45:49;;;;;;;13.95;9.02;;;-1.10;99.90;;;;;;5133654;27;20054;-59
2021/12/23 00:48:16;;;;;;;13.45;8.45;;;-1.10;99.90;;;;;;5115561;27;20042;-58
2021/12/23 00:50:41;;;;;;;19.35;9.85;;;-1.10;99.90;;;;;;5134175;27;20042;-59
2021/12/23 00:53:09;;;;;;;15.18;8.65;;;-1.10;99.90;;;;;;5097928;27;20541;-58
2021/12/23 00:55:35;;;;;;;14.57;9.02;;;-1.10;99.90;;;;;;5114406;27;20050;-59
2021/12/23 00:58:01;;;;;;;13.80;9.43;;;-1.10;99.90;;;;;;5114891;27;20043;-59
2021/12/23 01:00:27;;;;;;;15.15;9.77;;;-1.10;99.90;;;;;;5106060;27;20046;-59
2021/12/23 01:02:53;;;;;;;15.32;8.38;;;-1.10;99.90;;;;;;5117110;27;20105;-59
2021/12/23 01:05:21;;;;;;;17.67;9.38;;;-1.10;99.90;;;;;;5114295;27;20090;-59
2021/12/23 01:07:48;;;;;;;14.75;8.48;;;-1.00;99.90;;;;;;5114751;27;20043;-58
2021/12/23 01:10:15;;;;;;;16.15;9.23;;;-1.00;99.90;;;;;;5105388;27;20550;-60
2021/12/23 01:12:48;;;;;;;14.63;8.77;;;-1.00;99.90;;;;;;5115998;27;20057;-59
2021/12/23 01:15:27;;;;;;;11.98;7.57;;;-1.00;99.90;;;;;;5128584;27;20454;-61
2021/12/23 01:20:32;;;;;;;14.45;9.05;;;-0.90;99.90;;;;;;5133129;27;20059;-59
2021/12/23 01:23:00;;;;;;;16.60;9.60;;;-0.90;99.90;;;;;;5124068;27;20072;-59
2021/12/23 01:25:26;;;;;;;15.07;9.57;;;-0.90;99.90;;;;;;5133722;27;20055;-59
2021/12/23 01:27:52;;;;;;;15.10;7.97;;;-0.90;99.90;;;;;;5114848;27;20389;-59
2021/12/23 01:30:19;;;;;;;14.65;9.05;;;-0.90;99.90;;;;;;5132765;27;20130;-59
2021/12/23 01:32:47;;;;;;;16.52;8.45;;;-0.80;99.90;;;;;;5134231;27;20043;-59
2021/12/23 01:35:13;;;;;;;16.35;10.23;;;-0.80;99.90;;;;;;5132825;27;20059;-59
2021/12/23 01:37:38;;;;;;;13.20;8.43;;;-0.70;99.90;;;;;;5131909;27;20039;-59
2021/12/23 01:40:06;;;;;;;16.27;9.20;;;-0.80;99.90;;;;;;5132442;27;20047;-59
2021/12/23 01:42:31;;;;;;;13.02;7.38;;;-0.80;99.90;;;;;;5132567;27;20087;-58
2021/12/23 01:44:57;;;;;;;15.15;9.82;;;-0.50;99.90;;;;;;5142367;27;20050;-59
2021/12/23 01:47:23;;;;;;;17.50;10.23;;;-0.80;99.90;;;;;;5132129;27;20094;-59
2021/12/23 01:49:50;;;;;;;15.60;7.68;;;-0.80;99.90;;;;;;5132876;27;20043;-59
2021/12/23 01:52:15;;;;;;;13.60;8.27;;;-0.80;99.90;;;;;;5132834;27;20051;-59
2021/12/23 01:54:41;;;;;;;12.85;7.55;;;-0.80;99.90;;;;;;5115053;27;20074;-59
2021/12/23 01:57:08;;;;;;;13.15;8.15;;;-0.80;99.90;;;;;;5131951;27;20035;-59
2021/12/23 01:59:34;;;;;;;16.58;10.98;;;-0.80;99.90;;;;;;5131767;27;20058;-58
2021/12/23 02:02:00;;;;;;;18.13;10.43;;;-0.80;99.90;;;;;;5132497;27;20047;-59
2021/12/23 02:04:26;;;;;;;18.05;10.35;;;-0.90;99.90;;;;;;5111324;27;20038;-58
2021/12/23 02:06:52;;;;;;;15.90;10.15;;;-1.00;99.90;;;;;;5098642;27;20113;-58
2021/12/23 02:09:18;;;;;;;14.68;8.95;;;-1.00;99.90;;;;;;5132388;27;20039;-58
2021/12/23 02:11:45;;;;;;;14.75;9.10;;;-1.00;99.90;;;;;;5113557;27;20082;-58
2021/12/23 02:14:10;;;;;;;21.27;12.02;;;-0.90;99.90;;;;;;5131962;27;20123;-58
2021/12/23 02:16:36;;;;;;;17.90;10.38;;;-0.90;99.90;;;;;;5120870;27;20103;-58
2021/12/23 02:19:17;;;;;;;16.10;9.75;;;-0.90;99.90;;;;;;5113431;27;20047;-58
2021/12/23 02:21:47;;;;;;;22.35;12.13;;;-0.80;99.90;;;;;;5131898;27;20055;-58
2021/12/23 02:24:14;;;;;;;19.92;11.57;;;-0.80;99.90;;;;;;5132025;27;20046;-58
2021/12/23 02:26:41;;;;;;;18.63;10.07;;;-0.80;99.90;;;;;;5129420;27;20039;-59
2021/12/23 02:29:08;;;;;;;15.90;9.50;;;-0.70;99.90;;;;;;5131506;27;20076;-59
2021/12/23 02:31:34;;;;;;;16.80;9.77;;;-0.70;99.90;;;;;;5113273;27;20488;-59
2021/12/23 02:34:00;;;;;;;22.00;10.05;;;-0.70;99.90;;;;;;5113709;27;20123;-58
2021/12/23 02:36:30;;;;;;;14.27;9.00;;;-0.60;99.90;;;;;;5128297;27;20114;-59
2021/12/23 02:38:57;;;;;;;18.83;11.57;;;-0.60;99.90;;;;;;5126959;27;20687;-58
2021/12/23 02:41:23;;;;;;;21.33;10.93;;;-0.60;99.90;;;;;;5131947;27;20065;-58
2021/12/23 02:43:49;;;;;;;16.85;10.07;;;-0.50;99.90;;;;;;5130973;27;20088;-59
2021/12/23 02:46:18;;;;;;;14.73;8.13;;;0.00;99.90;;;;;;5131442;27;20043;-59
2021/12/23 02:48:44;;;;;;;14.50;9.55;;;-0.50;99.90;;;;;;5123106;27;20042;-61
2021/12/23 02:51:11;;;;;;;19.33;10.65;;;-0.50;99.90;;;;;;5112661;28;20055;-58
2021/12/23 02:53:39;;;;;;;15.20;9.10;;;-0.50;99.90;;;;;;5131387;27;20062;-58
2021/12/23 02:56:07;;;;;;;14.82;9.23;;;-0.50;99.90;;;;;;5113227;27;20047;-58
2021/12/23 02:58:33;;;;;;;17.38;9.45;;;-0.50;99.90;;;;;;5110389;27;20150;-58
2021/12/23 03:01:00;;;;;;;18.08;11.77;;;-0.40;99.90;;;;;;5132008;27;20054;-58
2021/12/23 03:03:26;;;;;;;17.17;10.48;;;-0.40;99.90;;;;;;5131613;27;20126;-58
2021/12/23 03:05:57;;;;;;;15.90;10.02;;;-0.50;99.90;;;;;;5113071;27;20143;-58
2021/12/23 03:08:37;;;;;;;14.35;9.65;;;-0.50;99.90;;;;;;5129499;27;20050;-61
2021/12/23 03:11:04;;;;;;;15.75;10.25;;;-0.50;99.90;;;;;;5130857;27;20073;-61
2021/12/23 03:13:31;;;;;;;16.70;9.50;;;-0.40;99.90;;;;;;5130964;28;20529;-59
2021/12/23 03:15:57;;;;;;;19.08;10.90;;;-0.40;99.90;;;;;;5131435;28;20127;-58
2021/12/23 03:18:22;;;;;;;17.17;10.23;;;-0.40;99.90;;;;;;5111784;28;20051;-58
2021/12/23 03:20:48;;;;;;;18.45;11.02;;;-0.40;99.90;;;;;;5111119;28;20047;-60
2021/12/23 03:23:14;;;;;;;17.50;9.93;;;-0.10;99.90;;;;;;5110792;28;20079;-59
2021/12/23 03:25:40;;;;;;;14.32;8.70;;;-0.40;99.90;;;;;;5092043;28;20040;-59
2021/12/23 03:28:05;;;;;;;18.65;11.27;;;-0.30;99.90;;;;;;5106262;28;20039;-59
2021/12/23 03:30:31;;;;;;;16.15;10.40;;;-0.30;99.90;;;;;;5111839;28;20054;-58
2021/12/23 03:32:57;;;;;;;18.05;9.35;;;-0.30;99.90;;;;;;5131265;28;20066;-58
2021/12/23 03:35:23;;;;;;;19.77;11.75;;;-0.30;99.90;;;;;;5131350;28;20396;-59
2021/12/23 03:37:49;;;;;;;16.90;9.63;;;-0.30;99.90;;;;;;5129666;28;20132;-59
2021/12/23 03:40:15;;;;;;;17.10;9.75;;;-0.30;99.90;;;;;;5130111;28;20055;-59
2021/12/23 03:42:40;;;;;;;21.23;11.02;;;-0.30;99.90;;;;;;5130523;28;20138;-58
2021/12/23 03:45:08;;;;;;;17.27;10.75;;;-0.10;99.90;;;;;;5112776;28;20118;-58
2021/12/23 03:47:37;;;;;;;20.15;11.68;;;-0.30;99.90;;;;;;5130875;28;20515;-58
2021/12/23 03:50:05;;;;;;;17.33;10.30;;;-0.20;99.90;;;;;;5129226;28;20126;-58
2021/12/23 03:52:31;;;;;;;17.45;10.38;;;-0.30;99.90;;;;;;5130537;28;20039;-58
2021/12/23 03:54:57;;;;;;;18.05;10.18;;;-0.20;99.90;;;;;;5112140;28;20050;-59
2021/12/23 03:57:23;;;;;;;16.88;9.80;;;-0.20;99.90;;;;;;5131026;28;20080;-58
2021/12/23 03:59:48;;;;;;;19.15;10.13;;;-0.20;99.90;;;;;;5130153;28;20073;-61
2021/12/23 04:02:14;;;;;;;16.65;10.55;;;-0.20;99.90;;;;;;5130892;27;20115;-59
2021/12/23 04:04:40;;;;;;;17.92;10.18;;;-0.20;99.90;;;;;;5134395;27;20125;-59
2021/12/23 04:07:06;;;;;;;17.52;10.55;;;-0.10;99.90;;;;;;5134759;27;20127;-58
2021/12/23 04:09:32;;;;;;;17.60;8.88;;;-0.10;99.90;;;;;;5115962;27;20572;-59
2021/12/23 04:11:57;;;;;;;19.60;11.60;;;-0.10;99.90;;;;;;5133258;27;20051;-59
2021/12/23 04:14:23;;;;;;;16.40;10.23;;;-0.10;99.90;;;;;;5134625;27;20130;-59
2021/12/23 04:16:49;;;;;;;15.90;9.45;;;-0.10;99.90;;;;;;5134173;27;20477;-59
2021/12/23 04:19:15;;;;;;;17.23;9.80;;;0.00;99.90;;;;;;5134340;27;20065;-59
2021/12/23 04:21:41;;;;;;;19.58;11.88;;;-0.10;99.90;;;;;;5114478;27;20049;-59
2021/12/23 04:24:09;;;;;;;17.77;10.95;;;-0.10;99.90;;;;;;5133016;27;20039;-59
2021/12/23 04:26:37;;;;;;;19.48;11.25;;;-0.10;99.90;;;;;;5116050;27;20108;-59
2021/12/23 04:29:04;;;;;;;15.93;10.45;;;-0.10;99.90;;;;;;5133771;27;20111;-59
2021/12/23 04:31:30;;;;;;;19.85;11.48;;;0.00;99.90;;;;;;5134384;27;20047;-59
2021/12/23 04:33:55;;;;;;;19.40;11.55;;;-0.10;99.90;;;;;;5097980;27;20039;-59
2021/12/23 04:36:25;;;;;;;16.50;10.70;;;0.00;99.90;;;;;;5134277;27;20106;-59
2021/12/23 04:38:51;;;;;;;19.30;11.77;;;-0.10;99.90;;;;;;5133105;27;20063;-58
2021/12/23 04:41:17;;;;;;;18.05;10.63;;;-0.10;99.90;;;;;;5134191;27;20152;-59
2021/12/23 04:43:43;;;;;;;17.00;10.43;;;-0.10;99.90;;;;;;5124545;27;20048;-59
2021/12/23 04:46:10;;;;;;;19.63;11.93;;;-0.10;99.90;;;;;;5125528;27;20600;-58
2021/12/23 04:48:37;;;;;;;16.02;10.38;;;0.00;99.90;;;;;;5133344;27;20114;-59
2021/12/23 04:51:03;;;;;;;18.40;10.57;;;-0.10;99.90;;;;;;5133578;27;20191;-59
2021/12/23 04:53:29;;;;;;;16.52;9.55;;;-0.10;99.90;;;;;;5114641;27;20135;-59
2021/12/23 04:55:55;;;;;;;16.33;10.10;;;-0.10;99.90;;;;;;5133523;27;20093;-59
2021/12/23 04:58:21;;;;;;;16.98;10.38;;;0.00;99.90;;;;;;5133488;27;20068;-59
2021/12/23 05:00:49;;;;;;;16.88;10.65;;;-0.10;99.90;;;;;;5114919;27;20126;-59
2021/12/23 05:03:17;;;;;;;15.27;10.82;;;0.10;99.90;;;;;;5115112;27;20613;-59
2021/12/23 05:05:43;;;;;;;16.42;10.77;;;0.00;99.90;;;;;;5115854;27;20050;-59
2021/12/23 05:08:09;;;;;;;16.98;11.15;;;0.00;99.90;;;;;;5113131;28;20039;-59
2021/12/23 05:10:35;;;;;;;19.27;11.80;;;0.00;99.90;;;;;;5131871;27;20055;-59
2021/12/23 05:13:02;;;;;;;16.20;10.57;;;-0.10;99.90;;;;;;5132932;27;20498;-59
2021/12/23 05:15:28;;;;;;;17.05;10.75;;;0.00;99.90;;;;;;5119955;27;20055;-58
2021/12/23 05:17:54;;;;;;;20.92;11.90;;;0.00;99.90;;;;;;5112483;28;20504;-59
2021/12/23 05:20:20;;;;;;;19.33;10.05;;;0.00;99.90;;;;;;5130916;27;20088;-60
2021/12/23 05:22:47;;;;;;;15.77;10.25;;;0.00;99.90;;;;;;5125978;27;20049;-61
2021/12/23 05:25:13;;;;;;;20.77;11.18;;;0.00;99.90;;;;;;5127221;27;20075;-59
2021/12/23 05:27:39;;;;;;;18.85;11.20;;;0.00;99.90;;;;;;5112744;28;20548;-59
2021/12/23 05:30:08;;;;;;;19.02;11.30;;;0.00;99.90;;;;;;5118468;27;20381;-59
2021/12/23 05:32:34;;;;;;;21.30;10.50;;;0.00;99.90;;;;;;5133215;27;20505;-58
2021/12/23 05:34:59;;;;;;;15.38;8.75;;;0.10;99.90;;;;;;5132739;27;20083;-59
2021/12/23 05:37:25;;;;;;;18.60;10.07;;;0.10;99.90;;;;;;5132318;27;20037;-59
2021/12/23 05:39:51;;;;;;;18.98;10.77;;;0.10;99.90;;;;;;5132354;27;20054;-59
2021/12/23 05:42:16;;;;;;;16.40;10.75;;;0.10;99.90;;;;;;5113875;27;20452;-59
2021/12/23 05:44:42;;;;;;;18.40;12.15;;;0.20;99.90;;;;;;5114577;27;20079;-59
2021/12/23 05:47:08;;;;;;;18.80;10.55;;;0.20;99.90;;;;;;5100338;28;20836;-59
2021/12/23 05:49:34;;;;;;;17.70;11.27;;;0.20;99.90;;;;;;5112384;28;20044;-59
2021/12/23 05:52:00;;;;;;;16.08;10.38;;;0.20;99.90;;;;;;5127366;27;20039;-58
2021/12/23 05:54:25;;;;;;;19.27;11.18;;;0.20;99.90;;;;;;5097407;27;20047;-58
2021/12/23 05:56:51;;;;;;;14.38;9.75;;;0.20;99.90;;;;;;5129617;27;20039;-59
2021/12/23 05:59:17;;;;;;;15.52;10.32;;;0.20;99.90;;;;;;5097069;27;20050;-59
2021/12/23 06:01:42;;;;;;;16.88;8.60;;;0.20;99.90;;;;;;5131865;27;20046;-59
2021/12/23 06:04:08;;;;;;;12.95;8.38;;;0.20;99.90;;;;;;5130659;27;20103;-59
2021/12/23 06:06:34;;;;;;;18.65;11.73;;;0.20;99.90;;;;;;5112813;27;20445;-59
2021/12/23 06:09:00;;;;;;;19.67;10.85;;;0.20;99.90;;;;;;5093086;28;20047;-59
2021/12/23 06:11:27;;;;;;;16.45;10.57;;;0.30;99.90;;;;;;5118911;27;20043;-60
2021/12/23 06:13:52;;;;;;;17.85;10.90;;;0.30;99.90;;;;;;5113656;27;20098;-61
2021/12/23 06:16:18;;;;;;;16.58;11.55;;;0.40;99.90;;;;;;5132267;27;20079;-59
2021/12/23 06:18:44;;;;;;;15.27;10.05;;;0.40;99.90;;;;;;5116746;27;20099;-59
2021/12/23 06:21:09;;;;;;;17.83;11.02;;;0.40;99.90;;;;;;5112922;27;20100;-59
2021/12/23 06:23:35;;;;;;;21.33;12.48;;;0.30;99.90;;;;;;5131912;27;20043;-59
2021/12/23 06:26:01;;;;;;;19.88;11.70;;;0.50;99.90;;;;;;5131071;27;20047;-59
2021/12/23 06:28:27;;;;;;;17.80;10.50;;;0.40;99.90;;;;;;5129882;27;20043;-59
2021/12/23 06:30:52;;;;;;;22.00;11.95;;;0.40;99.90;;;;;;5113447;27;20063;-60
2021/12/23 06:33:18;;;;;;;18.15;11.23;;;0.40;99.90;;;;;;5095694;27;20400;-59
2021/12/23 06:35:44;;;;;;;18.48;11.90;;;0.40;99.90;;;;;;5131911;27;20079;-59
2021/12/23 06:38:11;;;;;;;16.95;11.13;;;0.40;99.90;;;;;;5130486;27;20159;-59
2021/12/23 06:40:38;;;;;;;15.32;9.18;;;0.40;99.90;;;;;;5093859;28;20081;-59
2021/12/23 06:43:05;;;;;;;21.05;11.95;;;0.40;99.90;;;;;;5130481;27;20112;-59
2021/12/23 06:45:30;;;;;;;18.67;11.75;;;0.40;99.90;;;;;;5113578;27;20045;-59
2021/12/23 06:47:57;;;;;;;17.77;11.02;;;0.40;99.90;;;;;;5113602;27;20039;-62
2021/12/23 06:50:23;;;;;;;16.65;11.50;;;0.50;99.90;;;;;;5112725;27;20522;-59
2021/12/23 06:52:49;;;;;;;18.35;11.75;;;0.50;99.90;;;;;;5130465;27;20469;-59
2021/12/23 06:55:18;;;;;;;19.58;12.07;;;0.50;99.90;;;;;;5109392;27;20125;-59
2021/12/23 06:57:44;;;;;;;22.33;13.00;;;0.50;99.90;;;;;;5131134;27;20050;-59
2021/12/23 07:00:16;;;;;;;18.50;12.02;;;0.70;99.90;;;;;;5129806;27;20400;-59
2021/12/23 07:02:42;;;;;;;20.98;12.20;;;0.50;99.90;;;;;;5121906;27;20035;-59
2021/12/23 07:05:09;;;;;;;21.10;12.73;;;0.50;99.90;;;;;;5112700;27;20052;-59
2021/12/23 07:08:12;;;;;;;19.92;12.02;;;0.50;99.90;;;;;;5131417;27;20480;-59
2021/12/23 07:10:29;;;;;;;20.15;11.95;;;0.50;99.90;;;;;;5119996;27;20496;-59
2021/12/23 07:12:56;;;;;;;22.45;14.10;;;0.50;99.90;;;;;;5101320;28;20338;-59
2021/12/23 07:15:25;;;;;;;22.92;12.23;;;0.50;99.90;;;;;;5092233;28;20040;-60
2021/12/23 07:17:53;;;;;;;22.58;12.63;;;0.40;99.90;;;;;;5110795;28;20402;-60
2021/12/23 07:20:19;;;;;;;19.40;11.45;;;0.40;99.90;;;;;;5093930;28;20060;-59
2021/12/23 07:22:45;;;;;;;21.67;12.80;;;0.40;99.90;;;;;;5145975;27;20487;-59
2021/12/23 07:25:13;;;;;;;23.40;13.80;;;0.40;99.90;;;;;;5112136;28;20043;-58
2021/12/23 07:27:39;;;;;;;22.05;14.13;;;0.40;99.90;;;;;;5113262;28;20055;-59
2021/12/23 07:30:06;;;;;;;26.58;16.15;;;0.40;99.90;;;;;;5130758;28;20083;-60
2021/12/23 07:32:32;;;;;;;24.10;15.52;;;0.40;99.90;;;;;;5127913;28;20050;-60
2021/12/23 07:34:57;;;;;;;22.05;14.07;;;0.40;99.90;;;;;;5130943;28;20047;-60
2021/12/23 07:37:23;;;;;;;25.85;14.90;;;0.40;99.90;;;;;;5113297;27;20042;-60
2021/12/23 07:39:50;;;;;;;24.33;13.77;;;0.40;99.90;;;;;;5134942;27;20055;-60
2021/12/23 07:42:18;;;;;;;24.67;14.15;;;0.40;99.90;;;;;;5132320;27;20051;-59
2021/12/23 07:44:44;;;;;;;22.55;12.95;;;0.40;99.90;;;;;;5116724;27;20069;-58
2021/12/23 07:47:11;;;;;;;25.98;15.30;;;0.40;99.90;;;;;;5134317;27;20050;-59
2021/12/23 07:49:37;;;;;;;27.95;14.93;;;0.40;99.90;;;;;;5135069;27;20089;-59
2021/12/23 07:52:03;;;;;;;25.23;15.35;;;0.40;99.90;;;;;;5115864;27;20135;-59
2021/12/23 07:54:29;;;;;;;26.05;14.38;;;0.40;99.90;;;;;;5134693;27;20058;-59
2021/12/23 07:56:56;;;;;;;23.17;14.13;;;0.40;99.90;;;;;;5134516;27;20046;-59
2021/12/23 07:59:21;;;;;;;25.92;14.05;;;0.70;99.90;;;;;;5133795;27;20047;-59
2021/12/23 08:01:47;;;;;;;25.42;15.30;;;0.40;99.90;;;;;;5133468;27;20047;-59
2021/12/23 08:04:13;;;;;;;23.17;13.98;;;0.40;99.90;;;;;;5116761;27;20043;-59
2021/12/23 08:06:39;;;;;;;24.35;15.40;;;0.40;99.90;;;;;;5095985;28;20102;-59
2021/12/23 08:09:04;;;;;;;24.67;13.88;;;0.40;99.90;;;;;;5114172;28;20373;-59
2021/12/23 08:11:30;;;;;;;24.58;16.48;;;0.50;99.90;;;;;;5124458;27;20051;-59
2021/12/23 08:13:56;;;;;;;21.70;13.65;;;0.40;99.90;;;;;;5132323;27;20381;-59
2021/12/23 08:16:22;;;;;;;23.85;15.32;;;0.40;99.90;;;;;;5133434;27;20484;-59
2021/12/23 08:18:47;;;;;;;27.88;15.15;;;0.40;99.90;;;;;;5150382;27;20043;-61
2021/12/23 08:21:13;;;;;;;26.17;16.90;;;0.40;99.90;;;;;;5133923;27;20035;-60
2021/12/23 08:23:39;;;;;;;26.02;13.52;;;0.40;99.90;;;;;;5132152;27;20071;-60
2021/12/23 08:26:11;;;;;;;26.40;15.38;;;0.40;99.90;;;;;;5134535;27;20087;-59
2021/12/23 08:28:37;;;;;;;20.30;13.45;;;0.40;99.90;;;;;;5134513;27;20039;-60
2021/12/23 08:31:03;;;;;;;22.00;13.88;;;0.30;99.90;;;;;;5098811;27;20047;-60
2021/12/23 08:33:28;;;;;;;22.90;12.98;;;0.30;99.90;;;;;;5133117;27;20374;-59
2021/12/23 08:35:54;;;;;;;23.75;13.43;;;0.30;99.90;;;;;;5134507;27;20180;-59
2021/12/23 08:38:20;;;;;;;23.48;14.13;;;0.30;99.90;;;;;;5115575;27;20115;-60
2021/12/23 08:40:46;;;;;;;27.05;16.20;;;0.30;99.90;;;;;;5115105;27;20119;-60
2021/12/23 08:43:13;;;;;;;24.92;15.02;;;0.30;99.90;;;;;;5133897;27;20051;-62
2021/12/23 08:45:39;;;;;;;28.45;14.93;;;0.30;99.90;;;;;;5129889;27;20043;-60
2021/12/23 08:48:05;;;;;;;24.00;14.45;;;0.30;99.90;;;;;;5133841;27;20396;-60
2021/12/23 08:50:31;;;;;;;27.73;17.35;;;0.30;99.90;;;;;;5130425;27;20125;-61
2021/12/23 08:52:59;;;;;;;22.80;14.73;;;0.30;99.90;;;;;;5130929;27;20031;-60
2021/12/23 08:55:27;;;;;;;26.40;15.35;;;0.30;99.90;;;;;;5140245;27;20061;-60
2021/12/23 08:57:55;;;;;;;24.27;15.88;;;0.30;99.90;;;;;;5149753;27;20447;-60
2021/12/23 09:00:21;;;;;;;25.17;16.83;;;0.30;99.90;;;;;;5114339;27;20532;-60
2021/12/23 09:02:48;;;;;;;30.92;16.45;;;0.30;99.90;;;;;;5115385;27;20055;-61
2021/12/23 09:05:17;;;;;;;24.70;14.68;;;0.30;99.90;;;;;;5112267;27;20108;-63
2021/12/23 09:07:43;;;;;;;26.50;16.15;;;0.30;99.90;;;;;;5133209;27;20466;-60
2021/12/23 09:10:10;;;;;;;24.02;14.88;;;0.30;99.90;;;;;;5114995;27;20043;-59
2021/12/23 09:12:35;;;;;;;22.77;14.82;;;0.30;99.90;;;;;;5129865;27;20458;-62
2021/12/23 09:15:01;;;;;;;27.90;16.38;;;0.30;99.90;;;;;;5128433;27;20047;-59
2021/12/23 09:17:27;;;;;;;28.83;16.08;;;0.30;99.90;;;;;;5094689;28;20051;-60
2021/12/23 09:19:53;;;;;;;29.85;14.88;;;0.30;99.90;;;;;;5094870;28;20044;-61
2021/12/23 09:22:19;;;;;;;26.85;15.23;;;0.40;99.90;;;;;;5111957;28;20462;-61
2021/12/23 09:24:46;;;;;;;24.88;15.70;;;0.40;99.90;;;;;;5123500;27;20046;-59
2021/12/23 09:34:55;;;;;;;29.80;16.45;;;0.40;99.90;;;;;;5115225;27;20404;-58
2021/12/23 09:37:23;;;;;;;24.83;15.45;;;0.40;99.90;;;;;;5103003;27;20051;-61
2021/12/23 09:39:54;;;;;;;28.33;18.90;;;0.40;99.90;;;;;;5133012;27;20201;-60
2021/12/23 09:42:24;;;;;;;29.10;17.05;;;0.40;99.90;;;;;;5114507;27;20404;-60
2021/12/23 09:44:53;;;;;;;31.15;18.15;;;0.30;99.90;;;;;;5139407;27;20058;-59
2021/12/23 09:47:20;;;;;;;34.25;19.80;;;0.40;99.90;;;;;;5108576;28;20486;-64
2021/12/23 09:49:46;;;;;;;35.15;19.27;;;0.40;99.90;;;;;;5112561;28;20409;-61
2021/12/23 09:52:12;;;;;;;28.40;17.73;;;0.30;99.90;;;;;;5060863;28;20086;-60
2021/12/23 09:54:41;;;;;;;30.85;18.75;;;0.40;99.90;;;;;;5115438;27;20054;-59
2021/12/23 09:57:07;;;;;;;30.85;18.42;;;0.40;99.90;;;;;;5108150;28;20047;-61
2021/12/23 09:59:33;;;;;;;33.33;20.27;;;0.40;99.90;;;;;;5128041;27;20471;-61
2021/12/23 10:01:58;;;;;;;34.65;19.75;;;0.40;99.90;;;;;;5108060;28;20043;-60
2021/12/23 10:04:24;;;;;;;35.80;20.00;;;0.40;99.90;;;;;;5137625;27;20082;-59
2021/12/23 10:06:51;;;;;;;35.25;19.67;;;0.50;99.90;;;;;;5107269;27;20066;-60
2021/12/23 10:09:39;;;;;;;28.15;16.77;;;0.50;99.90;;;;;;5138645;27;20055;-62
2021/12/23 10:31:20;;;;;;;36.90;19.85;;;0.50;99.90;;;;;;5106479;27;20079;-60
2021/12/23 10:38:59;;;;;;;42.03;20.30;;;0.50;99.90;;;;;;5092370;28;20101;-59
2021/12/23 10:41:27;;;;;;;41.05;21.75;;;0.50;99.90;;;;;;5089388;28;20463;-60
2021/12/23 10:43:57;;;;;;;50.13;24.80;;;0.50;99.90;;;;;;5121888;27;20042;-60
2021/12/23 10:46:47;;;;;;;45.53;22.98;;;0.50;99.90;;;;;;5111182;28;20079;-59
2021/12/23 10:52:04;;;;;;;39.60;21.92;;;0.50;99.90;;;;;;5120205;27;20055;-60
2021/12/23 11:00:49;;;;;;;50.00;25.27;;;0.50;99.90;;;;;;5119672;27;20058;-59
2021/12/23 11:03:27;;;;;;;44.88;25.17;;;0.40;99.90;;;;;;5083258;27;20055;-59
2021/12/23 11:06:01;;;;;;;44.85;25.17;;;0.50;99.90;;;;;;5118881;27;20054;-59
2021/12/23 11:08:49;;;;;;;43.88;23.13;;;0.70;99.90;;;;;;5131849;27;20099;-59
2021/12/23 11:11:39;;;;;;;47.72;24.60;;;0.40;99.90;;;;;;5131431;27;20120;-60
2021/12/23 11:38:47;;;;;;;50.65;25.33;;;0.50;99.90;;;;;;5134063;27;20044;-60
2021/12/23 11:43:52;;;;;;;57.97;26.20;;;0.60;99.90;;;;;;5112065;28;20051;-61
2021/12/23 11:46:45;;;;;;;51.17;24.52;;;0.60;99.90;;;;;;5112539;28;20058;-60
2021/12/23 11:49:13;;;;;;;50.45;26.75;;;0.60;99.90;;;;;;5128748;28;20054;-60
2021/12/23 11:51:53;;;;;;;44.78;21.73;;;0.60;99.90;;;;;;5130094;27;20503;-60
2021/12/23 11:54:30;;;;;;;49.15;25.13;;;0.60;99.90;;;;;;5105724;28;20054;-60
2021/12/23 11:57:03;;;;;;;53.00;27.02;;;0.60;99.90;;;;;;5110119;28;20049;-61
2021/12/23 11:59:30;;;;;;;46.90;23.60;;;0.60;99.90;;;;;;5100259;28;20112;-60
2021/12/23 12:01:57;;;;;;;41.78;20.98;;;0.60;99.90;;;;;;5111964;28;20051;-60
2021/12/23 12:04:27;;;;;;;54.30;26.58;;;0.60;99.90;;;;;;5109647;28;20055;-61
2021/12/23 12:06:54;;;;;;;52.42;26.40;;;0.70;99.90;;;;;;5130039;28;20469;-60
2021/12/23 12:09:20;;;;;;;42.58;21.65;;;0.70;99.90;;;;;;5109201;28;20048;-61
2021/12/23 12:12:07;;;;;;;57.72;29.17;;;0.80;99.90;;;;;;5129334;28;20545;-60
2021/12/23 12:14:39;;;;;;;50.38;25.92;;;0.70;99.90;;;;;;5100865;28;20341;-61
2021/12/23 12:17:43;;;;;;;50.58;25.00;;;0.70;99.90;;;;;;5110242;28;20113;-60
2021/12/23 12:20:21;;;;;;;46.33;23.75;;;0.70;99.90;;;;;;5028301;28;20049;-60
2021/12/23 12:22:55;;;;;;;54.75;29.63;;;0.70;99.90;;;;;;5027896;28;20045;-61
2021/12/23 12:25:23;;;;;;;49.47;24.27;;;0.70;99.90;;;;;;5090909;27;20047;-60
2021/12/23 12:27:56;;;;;;;55.03;28.90;;;0.70;99.90;;;;;;5134235;27;20039;-61
2021/12/23 12:30:45;;;;;;;50.25;26.98;;;0.80;99.90;;;;;;5114163;27;20031;-60
2021/12/23 12:33:26;;;;;;;45.88;23.40;;;0.80;99.90;;;;;;5133467;27;20047;-59
2021/12/23 12:35:58;;;;;;;46.33;23.42;;;0.80;99.90;;;;;;5098762;27;20055;-60
2021/12/23 12:38:26;;;;;;;45.95;24.73;;;0.90;99.90;;;;;;5099227;27;20404;-61
2021/12/23 12:41:04;;;;;;;49.05;25.40;;;1.00;99.90;;;;;;5110836;28;20481;-60
2021/12/23 12:43:54;;;;;;;48.13;24.73;;;1.10;99.90;;;;;;5111965;28;20082;-61
2021/12/23 12:46:34;;;;;;;43.75;23.33;;;1.00;99.90;;;;;;5113761;28;20123;-60
2021/12/23 12:49:12;;;;;;;46.72;23.45;;;1.00;99.90;;;;;;5113354;28;20479;-63
2021/12/23 12:51:43;;;;;;;50.75;27.55;;;1.00;99.90;;;;;;5112570;28;20055;-61
2021/12/23 12:54:15;;;;;;;49.70;27.88;;;1.00;99.90;;;;;;5113245;28;20120;-62
2021/12/23 12:56:47;;;;;;;37.90;20.35;;;1.00;99.90;;;;;;5113160;27;20579;-60
2021/12/23 12:59:16;;;;;;;45.15;22.52;;;1.10;99.90;;;;;;5112639;28;20059;-62
2021/12/23 13:01:48;;;;;;;55.35;26.95;;;1.10;99.90;;;;;;5129101;27;20061;-62
2021/12/23 13:04:36;;;;;;;50.63;26.65;;;1.20;99.90;;;;;;5111522;28;20055;-61
2021/12/23 13:07:28;;;;;;;51.67;26.95;;;1.30;99.90;;;;;;5102048;28;20048;-61
2021/12/23 13:10:17;;;;;;;51.03;25.63;;;1.30;99.90;;;;;;5113243;28;20077;-60
2021/12/23 13:12:57;;;;;;;48.10;24.33;;;1.20;99.90;;;;;;5112374;28;20062;-60
2021/12/23 13:15:30;;;;;;;45.92;24.55;;;1.20;99.90;;;;;;5098578;28;20047;-59
2021/12/23 13:17:59;;;;;;;47.22;24.08;;;1.20;99.90;;;;;;5092285;28;20048;-60
2021/12/23 13:20:49;;;;;;;50.80;24.20;;;1.20;99.90;;;;;;5106686;28;20055;-60
2021/12/23 13:23:33;;;;;;;47.88;24.23;;;1.20;99.90;;;;;;5103395;28;20181;-61
2021/12/23 13:26:11;;;;;;;51.50;26.38;;;1.10;99.90;;;;;;5109096;28;20039;-61
2021/12/23 13:28:41;;;;;;;55.17;28.25;;;1.10;99.90;;;;;;5111192;28;20048;-61
2021/12/23 13:31:19;;;;;;;60.58;28.50;;;1.10;99.90;;;;;;5110395;28;20043;-60
2021/12/23 13:33:48;;;;;;;50.72;26.63;;;1.10;99.90;;;;;;5110584;28;20082;-60
2021/12/23 13:36:28;;;;;;;54.05;27.63;;;1.10;99.90;;;;;;5095648;28;20056;-60
2021/12/23 13:39:01;;;;;;;53.53;25.88;;;1.10;99.90;;;;;;5081546;27;20385;-60
2021/12/23 13:41:32;;;;;;;57.50;29.65;;;1.10;99.90;;;;;;5097864;27;20058;-60
2021/12/23 13:44:15;;;;;;;62.88;27.50;;;1.10;99.90;;;;;;5132521;27;20438;-60
2021/12/23 13:47:04;;;;;;;59.53;28.52;;;1.10;99.90;;;;;;5131905;27;20081;-60
2021/12/23 13:49:47;;;;;;;57.53;28.30;;;1.20;99.90;;;;;;5149453;27;20525;-61
2021/12/23 13:52:40;;;;;;;52.20;26.25;;;1.20;99.90;;;;;;5113560;27;20054;-61
2021/12/23 13:55:09;;;;;;;52.08;24.42;;;1.20;99.90;;;;;;5122258;27;20450;-59
2021/12/23 13:57:41;;;;;;;58.30;27.98;;;1.20;99.90;;;;;;5113704;27;20062;-59
2021/12/23 14:00:24;;;;;;;58.92;26.42;;;1.20;99.90;;;;;;5132408;27;20108;-60
2021/12/23 14:02:53;;;;;;;59.25;30.80;;;1.20;99.90;;;;;;5092620;27;20065;-64